CheckWX is a tool to help pilots better visualize weather data.  It is not intended as a substitute for an official pre-flight weather briefing.

14:19:11 UTC

GMTT METAR
Ibn Batouta Airport
Tangier, Morocco
Current

49 mins ago

GMTT 221330Z 26016KT 9999 SCT013 SCT016 20/14 Q1006 NOSIG
Observed
Apr-22 @ 13:30 UTC
Wind
  • 260° at 16 KTS
Visibility
10,000+ meters
Flight Rules
VFR
Cloud Levels
  • Scattered at 1,300' AGL
  • Scattered at 1,600' AGL
Temperature
20°C / 68°F
Dewpoint
14°C / 57°F
Humidity
69%
Altimeter
29.7" Hg
Pressure
1005.92 hPa
Previous

1 hour ago

GMTT 221300Z 25015KT 6000 FEW013 SCT016 20/14 Q1006 NOSIG
Observed
Apr-22 @ 13:00 UTC
Wind
  • 250° at 15 KTS
Visibility
6,003 meters
Flight Rules
MVFR
Cloud Levels
  • Few at 1,300' AGL
  • Scattered at 1,600' AGL
Temperature
20°C / 68°F
Dewpoint
14°C / 57°F
Humidity
69%
Altimeter
29.7" Hg
Pressure
1005.92 hPa
Previous

2 hours ago

GMTT 221230Z 26014KT 6000 FEW013 SCT016 20/14 Q1006 NOSIG
Observed
Apr-22 @ 12:30 UTC
Wind
  • 260° at 14 KTS
Visibility
6,003 meters
Flight Rules
MVFR
Cloud Levels
  • Few at 1,300' AGL
  • Scattered at 1,600' AGL
Temperature
20°C / 68°F
Dewpoint
14°C / 57°F
Humidity
69%
Altimeter
29.7" Hg
Pressure
1005.92 hPa